sensor_id;sensor_type;location;lat;lon;timestamp;P1;durP1;ratioP1;P2;durP2;ratioP2
20348;SDS011;10332;50.208;18.988;2023-12-20T00:01:08;9.35;;;4.93;;
20348;SDS011;10332;50.208;18.988;2023-12-20T00:03:42;7.50;;;4.88;;
20348;SDS011;10332;50.208;18.988;2023-12-20T00:06:10;7.10;;;4.45;;
20348;SDS011;10332;50.208;18.988;2023-12-20T00:08:37;7.95;;;4.90;;
20348;SDS011;10332;50.208;18.988;2023-12-20T00:11:05;6.68;;;3.95;;
20348;SDS011;10332;50.208;18.988;2023-12-20T00:13:32;6.93;;;4.22;;
20348;SDS011;10332;50.208;18.988;2023-12-20T00:15:59;6.30;;;4.35;;
20348;SDS011;10332;50.208;18.988;2023-12-20T00:18:27;7.05;;;4.50;;
20348;SDS011;10332;50.208;18.988;2023-12-20T00:20:54;7.82;;;4.32;;
20348;SDS011;10332;50.208;18.988;2023-12-20T00:23:22;7.05;;;4.30;;
20348;SDS011;10332;50.208;18.988;2023-12-20T00:25:50;6.70;;;4.22;;
20348;SDS011;10332;50.208;18.988;2023-12-20T00:28:17;8.40;;;4.82;;
20348;SDS011;10332;50.208;18.988;2023-12-20T00:30:45;6.75;;;4.05;;
20348;SDS011;10332;50.208;18.988;2023-12-20T00:33:12;7.07;;;4.43;;
20348;SDS011;10332;50.208;18.988;2023-12-20T00:35:40;7.68;;;4.25;;
20348;SDS011;10332;50.208;18.988;2023-12-20T00:38:07;7.80;;;4.13;;
20348;SDS011;10332;50.208;18.988;2023-12-20T00:40:36;5.88;;;3.80;;
20348;SDS011;10332;50.208;18.988;2023-12-20T00:43:03;7.28;;;4.35;;
20348;SDS011;10332;50.208;18.988;2023-12-20T00:45:31;7.68;;;4.50;;
20348;SDS011;10332;50.208;18.988;2023-12-20T00:47:58;7.78;;;4.50;;
20348;SDS011;10332;50.208;18.988;2023-12-20T00:50:26;6.93;;;4.65;;
20348;SDS011;10332;50.208;18.988;2023-12-20T00:52:56;6.82;;;4.15;;
20348;SDS011;10332;50.208;18.988;2023-12-20T00:55:23;6.68;;;4.07;;
20348;SDS011;10332;50.208;18.988;2023-12-20T00:57:51;6.32;;;4.20;;
20348;SDS011;10332;50.208;18.988;2023-12-20T01:00:20;6.57;;;4.10;;
20348;SDS011;10332;50.208;18.988;2023-12-20T01:02:48;5.65;;;3.97;;
20348;SDS011;10332;50.208;18.988;2023-12-20T01:05:17;8.45;;;4.25;;
20348;SDS011;10332;50.208;18.988;2023-12-20T01:07:47;7.00;;;4.25;;
20348;SDS011;10332;50.208;18.988;2023-12-20T01:10:14;8.25;;;4.25;;
20348;SDS011;10332;50.208;18.988;2023-12-20T01:12:42;7.30;;;4.10;;
20348;SDS011;10332;50.208;18.988;2023-12-20T01:15:10;9.15;;;4.50;;
20348;SDS011;10332;50.208;18.988;2023-12-20T01:17:38;6.70;;;4.25;;
20348;SDS011;10332;50.208;18.988;2023-12-20T01:20:05;7.80;;;4.85;;
20348;SDS011;10332;50.208;18.988;2023-12-20T01:22:33;7.45;;;4.22;;
20348;SDS011;10332;50.208;18.988;2023-12-20T01:25:02;6.25;;;4.05;;
20348;SDS011;10332;50.208;18.988;2023-12-20T01:27:30;8.45;;;4.50;;
20348;SDS011;10332;50.208;18.988;2023-12-20T01:29:58;6.20;;;4.45;;
20348;SDS011;10332;50.208;18.988;2023-12-20T01:32:25;6.57;;;4.60;;
20348;SDS011;10332;50.208;18.988;2023-12-20T01:34:52;5.88;;;4.00;;
20348;SDS011;10332;50.208;18.988;2023-12-20T01:37:21;7.03;;;4.55;;
20348;SDS011;10332;50.208;18.988;2023-12-20T01:39:51;6.65;;;4.20;;
20348;SDS011;10332;50.208;18.988;2023-12-20T01:42:18;6.93;;;4.30;;
20348;SDS011;10332;50.208;18.988;2023-12-20T01:44:45;7.50;;;4.57;;
20348;SDS011;10332;50.208;18.988;2023-12-20T01:47:14;10.05;;;4.78;;
20348;SDS011;10332;50.208;18.988;2023-12-20T01:49:42;6.97;;;4.20;;
20348;SDS011;10332;50.208;18.988;2023-12-20T01:52:10;6.55;;;4.20;;
20348;SDS011;10332;50.208;18.988;2023-12-20T01:54:39;6.60;;;4.55;;
20348;SDS011;10332;50.208;18.988;2023-12-20T01:57:08;7.38;;;4.57;;
20348;SDS011;10332;50.208;18.988;2023-12-20T01:59:36;7.43;;;4.40;;
20348;SDS011;10332;50.208;18.988;2023-12-20T02:02:06;8.65;;;4.95;;
20348;SDS011;10332;50.208;18.988;2023-12-20T02:04:35;7.85;;;5.07;;
20348;SDS011;10332;50.208;18.988;2023-12-20T02:07:02;10.52;;;5.88;;
20348;SDS011;10332;50.208;18.988;2023-12-20T02:09:31;14.02;;;6.88;;
20348;SDS011;10332;50.208;18.988;2023-12-20T02:11:58;10.10;;;5.70;;
20348;SDS011;10332;50.208;18.988;2023-12-20T02:14:27;9.80;;;5.53;;
20348;SDS011;10332;50.208;18.988;2023-12-20T02:16:54;7.32;;;5.03;;
20348;SDS011;10332;50.208;18.988;2023-12-20T02:19:21;10.18;;;5.63;;
20348;SDS011;10332;50.208;18.988;2023-12-20T02:21:49;7.75;;;5.40;;
20348;SDS011;10332;50.208;18.988;2023-12-20T02:24:16;8.35;;;5.57;;
20348;SDS011;10332;50.208;18.988;2023-12-20T02:26:44;7.97;;;5.38;;
20348;SDS011;10332;50.208;18.988;2023-12-20T02:29:13;9.32;;;5.40;;
20348;SDS011;10332;50.208;18.988;2023-12-20T02:31:40;7.00;;;4.93;;
20348;SDS011;10332;50.208;18.988;2023-12-20T02:34:08;8.95;;;5.60;;
20348;SDS011;10332;50.208;18.988;2023-12-20T02:36:35;7.50;;;5.50;;
20348;SDS011;10332;50.208;18.988;2023-12-20T02:39:02;7.32;;;5.38;;
20348;SDS011;10332;50.208;18.988;2023-12-20T02:41:30;9.52;;;5.50;;
20348;SDS011;10332;50.208;18.988;2023-12-20T02:43:58;7.95;;;4.80;;
20348;SDS011;10332;50.208;18.988;2023-12-20T02:46:25;6.20;;;4.30;;
20348;SDS011;10332;50.208;18.988;2023-12-20T02:48:53;7.70;;;5.10;;
20348;SDS011;10332;50.208;18.988;2023-12-20T02:51:20;8.32;;;5.20;;
20348;SDS011;10332;50.208;18.988;2023-12-20T02:53:47;8.82;;;5.63;;
20348;SDS011;10332;50.208;18.988;2023-12-20T02:56:14;10.77;;;5.68;;
20348;SDS011;10332;50.208;18.988;2023-12-20T02:58:42;7.53;;;5.25;;
20348;SDS011;10332;50.208;18.988;2023-12-20T03:01:09;8.60;;;5.63;;
20348;SDS011;10332;50.208;18.988;2023-12-20T03:03:37;8.75;;;5.57;;
20348;SDS011;10332;50.208;18.988;2023-12-20T03:06:04;9.35;;;5.35;;
20348;SDS011;10332;50.208;18.988;2023-12-20T03:08:31;7.10;;;5.32;;
20348;SDS011;10332;50.208;18.988;2023-12-20T03:10:59;9.05;;;5.65;;
20348;SDS011;10332;50.208;18.988;2023-12-20T03:13:27;7.75;;;5.63;;
20348;SDS011;10332;50.208;18.988;2023-12-20T03:15:54;11.05;;;5.78;;
20348;SDS011;10332;50.208;18.988;2023-12-20T03:18:21;7.82;;;5.25;;
20348;SDS011;10332;50.208;18.988;2023-12-20T03:20:49;10.57;;;5.95;;
20348;SDS011;10332;50.208;18.988;2023-12-20T03:23:17;8.23;;;5.47;;
20348;SDS011;10332;50.208;18.988;2023-12-20T03:25:44;9.05;;;5.68;;
20348;SDS011;10332;50.208;18.988;2023-12-20T03:28:14;10.45;;;6.53;;
20348;SDS011;10332;50.208;18.988;2023-12-20T03:30:42;9.18;;;6.05;;
20348;SDS011;10332;50.208;18.988;2023-12-20T03:33:10;9.23;;;5.72;;
20348;SDS011;10332;50.208;18.988;2023-12-20T03:35:37;9.93;;;6.30;;
20348;SDS011;10332;50.208;18.988;2023-12-20T03:38:04;10.80;;;6.80;;
20348;SDS011;10332;50.208;18.988;2023-12-20T03:40:32;9.85;;;6.70;;
20348;SDS011;10332;50.208;18.988;2023-12-20T03:42:59;10.20;;;6.72;;
20348;SDS011;10332;50.208;18.988;2023-12-20T03:45:26;12.40;;;7.10;;
20348;SDS011;10332;50.208;18.988;2023-12-20T03:47:54;10.48;;;6.80;;
20348;SDS011;10332;50.208;18.988;2023-12-20T03:50:23;10.50;;;6.60;;
20348;SDS011;10332;50.208;18.988;2023-12-20T03:52:51;11.25;;;6.88;;
20348;SDS011;10332;50.208;18.988;2023-12-20T03:55:18;12.75;;;7.38;;
20348;SDS011;10332;50.208;18.988;2023-12-20T03:57:46;10.98;;;7.65;;
20348;SDS011;10332;50.208;18.988;2023-12-20T04:00:13;11.32;;;7.35;;
20348;SDS011;10332;50.208;18.988;2023-12-20T04:02:41;13.50;;;8.05;;
20348;SDS011;10332;50.208;18.988;2023-12-20T04:05:09;11.63;;;7.38;;
20348;SDS011;10332;50.208;18.988;2023-12-20T04:07:37;10.45;;;7.30;;
20348;SDS011;10332;50.208;18.988;2023-12-20T04:10:04;12.32;;;7.85;;
20348;SDS011;10332;50.208;18.988;2023-12-20T04:12:32;12.07;;;7.82;;
20348;SDS011;10332;50.208;18.988;2023-12-20T04:15:00;11.45;;;7.25;;
20348;SDS011;10332;50.208;18.988;2023-12-20T04:17:27;15.20;;;8.40;;
20348;SDS011;10332;50.208;18.988;2023-12-20T04:19:55;11.05;;;7.68;;
20348;SDS011;10332;50.208;18.988;2023-12-20T04:22:22;13.98;;;8.32;;
20348;SDS011;10332;50.208;18.988;2023-12-20T04:24:50;12.38;;;8.00;;
20348;SDS011;10332;50.208;18.988;2023-12-20T04:27:17;12.57;;;8.50;;
20348;SDS011;10332;50.208;18.988;2023-12-20T04:29:45;13.55;;;8.70;;
20348;SDS011;10332;50.208;18.988;2023-12-20T04:32:12;15.05;;;9.15;;
20348;SDS011;10332;50.208;18.988;2023-12-20T04:34:39;13.27;;;8.68;;
20348;SDS011;10332;50.208;18.988;2023-12-20T04:37:07;12.77;;;8.88;;
20348;SDS011;10332;50.208;18.988;2023-12-20T04:39:34;12.52;;;8.95;;
20348;SDS011;10332;50.208;18.988;2023-12-20T04:42:02;13.68;;;9.20;;
20348;SDS011;10332;50.208;18.988;2023-12-20T04:44:30;14.48;;;8.90;;
20348;SDS011;10332;50.208;18.988;2023-12-20T04:46:57;12.30;;;8.98;;
20348;SDS011;10332;50.208;18.988;2023-12-20T04:49:25;12.32;;;8.38;;
20348;SDS011;10332;50.208;18.988;2023-12-20T04:51:52;15.38;;;9.30;;
20348;SDS011;10332;50.208;18.988;2023-12-20T04:54:20;14.73;;;9.80;;
20348;SDS011;10332;50.208;18.988;2023-12-20T04:56:47;17.40;;;9.98;;
20348;SDS011;10332;50.208;18.988;2023-12-20T04:59:14;12.73;;;8.57;;
20348;SDS011;10332;50.208;18.988;2023-12-20T05:01:42;15.88;;;10.35;;
20348;SDS011;10332;50.208;18.988;2023-12-20T05:04:09;17.90;;;10.70;;
20348;SDS011;10332;50.208;18.988;2023-12-20T05:06:37;16.42;;;11.10;;
20348;SDS011;10332;50.208;18.988;2023-12-20T05:09:04;15.70;;;10.98;;
20348;SDS011;10332;50.208;18.988;2023-12-20T05:11:32;15.52;;;10.50;;
20348;SDS011;10332;50.208;18.988;2023-12-20T05:13:59;15.57;;;10.35;;
20348;SDS011;10332;50.208;18.988;2023-12-20T05:16:27;16.48;;;10.77;;
20348;SDS011;10332;50.208;18.988;2023-12-20T05:18:54;17.20;;;10.90;;
20348;SDS011;10332;50.208;18.988;2023-12-20T05:21:21;16.35;;;10.88;;
20348;SDS011;10332;50.208;18.988;2023-12-20T05:23:49;19.75;;;11.07;;
20348;SDS011;10332;50.208;18.988;2023-12-20T05:26:16;16.85;;;11.85;;
20348;SDS011;10332;50.208;18.988;2023-12-20T05:28:43;22.73;;;12.60;;
20348;SDS011;10332;50.208;18.988;2023-12-20T05:31:11;18.30;;;12.02;;
20348;SDS011;10332;50.208;18.988;2023-12-20T05:33:38;21.27;;;12.65;;
20348;SDS011;10332;50.208;18.988;2023-12-20T05:36:06;20.30;;;13.10;;
20348;SDS011;10332;50.208;18.988;2023-12-20T05:38:38;21.00;;;12.60;;
20348;SDS011;10332;50.208;18.988;2023-12-20T05:41:05;21.40;;;12.77;;
20348;SDS011;10332;50.208;18.988;2023-12-20T05:43:32;21.25;;;13.57;;
20348;SDS011;10332;50.208;18.988;2023-12-20T05:46:00;22.33;;;13.60;;
20348;SDS011;10332;50.208;18.988;2023-12-20T05:48:27;20.85;;;12.93;;
20348;SDS011;10332;50.208;18.988;2023-12-20T05:50:54;22.25;;;13.38;;
20348;SDS011;10332;50.208;18.988;2023-12-20T05:53:22;21.08;;;13.00;;
20348;SDS011;10332;50.208;18.988;2023-12-20T05:55:49;22.02;;;14.02;;
20348;SDS011;10332;50.208;18.988;2023-12-20T05:58:16;22.10;;;13.82;;
20348;SDS011;10332;50.208;18.988;2023-12-20T06:00:44;21.10;;;13.20;;
20348;SDS011;10332;50.208;18.988;2023-12-20T06:03:11;21.67;;;14.23;;
20348;SDS011;10332;50.208;18.988;2023-12-20T06:05:39;21.98;;;12.88;;
20348;SDS011;10332;50.208;18.988;2023-12-20T06:08:06;20.45;;;13.63;;
20348;SDS011;10332;50.208;18.988;2023-12-20T06:10:34;21.40;;;13.63;;
20348;SDS011;10332;50.208;18.988;2023-12-20T06:13:01;19.98;;;13.02;;
20348;SDS011;10332;50.208;18.988;2023-12-20T06:15:28;20.92;;;13.90;;
20348;SDS011;10332;50.208;18.988;2023-12-20T06:17:55;20.73;;;12.82;;
20348;SDS011;10332;50.208;18.988;2023-12-20T06:20:23;24.60;;;14.00;;
20348;SDS011;10332;50.208;18.988;2023-12-20T06:22:55;22.45;;;13.40;;
20348;SDS011;10332;50.208;18.988;2023-12-20T06:25:22;23.20;;;14.45;;
20348;SDS011;10332;50.208;18.988;2023-12-20T06:27:49;22.83;;;14.18;;
20348;SDS011;10332;50.208;18.988;2023-12-20T06:30:17;26.58;;;13.88;;
20348;SDS011;10332;50.208;18.988;2023-12-20T06:32:44;22.33;;;13.70;;
20348;SDS011;10332;50.208;18.988;2023-12-20T06:35:13;21.85;;;13.38;;
20348;SDS011;10332;50.208;18.988;2023-12-20T06:37:41;23.25;;;14.23;;
20348;SDS011;10332;50.208;18.988;2023-12-20T06:40:11;21.30;;;13.75;;
20348;SDS011;10332;50.208;18.988;2023-12-20T06:42:44;20.48;;;13.20;;
20348;SDS011;10332;50.208;18.988;2023-12-20T06:45:25;22.00;;;13.27;;
20348;SDS011;10332;50.208;18.988;2023-12-20T06:47:52;21.77;;;13.40;;
20348;SDS011;10332;50.208;18.988;2023-12-20T06:50:19;20.30;;;13.50;;
20348;SDS011;10332;50.208;18.988;2023-12-20T06:52:47;24.30;;;13.75;;
20348;SDS011;10332;50.208;18.988;2023-12-20T06:55:14;22.08;;;13.40;;
20348;SDS011;10332;50.208;18.988;2023-12-20T06:57:42;22.80;;;14.57;;
20348;SDS011;10332;50.208;18.988;2023-12-20T07:00:10;21.98;;;13.27;;
20348;SDS011;10332;50.208;18.988;2023-12-20T07:02:38;21.40;;;13.05;;
20348;SDS011;10332;50.208;18.988;2023-12-20T07:05:06;22.35;;;13.80;;
20348;SDS011;10332;50.208;18.988;2023-12-20T07:07:33;23.98;;;14.30;;
20348;SDS011;10332;50.208;18.988;2023-12-20T07:10:02;22.92;;;13.65;;
20348;SDS011;10332;50.208;18.988;2023-12-20T07:12:29;22.58;;;14.10;;
20348;SDS011;10332;50.208;18.988;2023-12-20T07:14:56;24.13;;;13.88;;
20348;SDS011;10332;50.208;18.988;2023-12-20T07:17:23;23.27;;;14.10;;
20348;SDS011;10332;50.208;18.988;2023-12-20T07:19:51;23.80;;;14.25;;
20348;SDS011;10332;50.208;18.988;2023-12-20T07:22:18;23.75;;;14.23;;
20348;SDS011;10332;50.208;18.988;2023-12-20T07:24:46;24.08;;;14.43;;
20348;SDS011;10332;50.208;18.988;2023-12-20T07:27:14;23.95;;;14.60;;
20348;SDS011;10332;50.208;18.988;2023-12-20T07:29:42;25.80;;;14.90;;
20348;SDS011;10332;50.208;18.988;2023-12-20T07:32:09;26.08;;;15.32;;
20348;SDS011;10332;50.208;18.988;2023-12-20T07:34:37;28.58;;;16.45;;
20348;SDS011;10332;50.208;18.988;2023-12-20T07:37:04;26.30;;;15.70;;
20348;SDS011;10332;50.208;18.988;2023-12-20T07:39:32;28.27;;;17.33;;
20348;SDS011;10332;50.208;18.988;2023-12-20T07:42:00;26.05;;;16.13;;
20348;SDS011;10332;50.208;18.988;2023-12-20T07:44:27;27.88;;;15.27;;
20348;SDS011;10332;50.208;18.988;2023-12-20T07:46:54;25.25;;;15.27;;
20348;SDS011;10332;50.208;18.988;2023-12-20T07:49:22;24.10;;;14.13;;
20348;SDS011;10332;50.208;18.988;2023-12-20T07:51:49;23.63;;;14.98;;
20348;SDS011;10332;50.208;18.988;2023-12-20T07:54:17;24.48;;;14.50;;
20348;SDS011;10332;50.208;18.988;2023-12-20T07:56:45;27.38;;;15.30;;
20348;SDS011;10332;50.208;18.988;2023-12-20T07:59:13;27.05;;;15.32;;
20348;SDS011;10332;50.208;18.988;2023-12-20T08:01:55;23.20;;;14.63;;
20348;SDS011;10332;50.208;18.988;2023-12-20T08:04:22;26.52;;;15.50;;
20348;SDS011;10332;50.208;18.988;2023-12-20T08:06:50;25.13;;;15.18;;
20348;SDS011;10332;50.208;18.988;2023-12-20T08:09:18;24.45;;;14.85;;
20348;SDS011;10332;50.208;18.988;2023-12-20T08:11:46;27.52;;;15.32;;
20348;SDS011;10332;50.208;18.988;2023-12-20T08:14:15;27.08;;;15.32;;
20348;SDS011;10332;50.208;18.988;2023-12-20T08:16:43;25.50;;;14.93;;
20348;SDS011;10332;50.208;18.988;2023-12-20T08:19:10;26.00;;;15.82;;
20348;SDS011;10332;50.208;18.988;2023-12-20T08:21:38;24.63;;;15.02;;
20348;SDS011;10332;50.208;18.988;2023-12-20T08:24:05;25.48;;;15.20;;
20348;SDS011;10332;50.208;18.988;2023-12-20T08:26:33;26.90;;;14.52;;
20348;SDS011;10332;50.208;18.988;2023-12-20T08:29:01;26.73;;;15.73;;
20348;SDS011;10332;50.208;18.988;2023-12-20T08:31:28;23.60;;;13.60;;
20348;SDS011;10332;50.208;18.988;2023-12-20T08:33:56;23.25;;;14.13;;
20348;SDS011;10332;50.208;18.988;2023-12-20T08:36:23;25.20;;;14.77;;
20348;SDS011;10332;50.208;18.988;2023-12-20T08:38:51;23.23;;;14.80;;
20348;SDS011;10332;50.208;18.988;2023-12-20T08:41:18;25.85;;;14.50;;
20348;SDS011;10332;50.208;18.988;2023-12-20T08:43:47;24.67;;;13.82;;
20348;SDS011;10332;50.208;18.988;2023-12-20T08:46:14;28.13;;;15.70;;
20348;SDS011;10332;50.208;18.988;2023-12-20T08:48:42;21.50;;;13.70;;
20348;SDS011;10332;50.208;18.988;2023-12-20T08:51:10;22.77;;;14.15;;
20348;SDS011;10332;50.208;18.988;2023-12-20T08:53:38;23.05;;;14.52;;
20348;SDS011;10332;50.208;18.988;2023-12-20T08:56:05;25.20;;;15.35;;
20348;SDS011;10332;50.208;18.988;2023-12-20T08:58:32;23.08;;;13.88;;
20348;SDS011;10332;50.208;18.988;2023-12-20T09:01:02;24.27;;;14.27;;
20348;SDS011;10332;50.208;18.988;2023-12-20T09:03:30;22.00;;;14.52;;
20348;SDS011;10332;50.208;18.988;2023-12-20T09:05:58;25.27;;;14.25;;
20348;SDS011;10332;50.208;18.988;2023-12-20T09:08:25;26.95;;;15.10;;
20348;SDS011;10332;50.208;18.988;2023-12-20T09:10:52;24.90;;;14.90;;
20348;SDS011;10332;50.208;18.988;2023-12-20T09:13:20;26.25;;;15.50;;
20348;SDS011;10332;50.208;18.988;2023-12-20T09:15:49;23.58;;;14.63;;
20348;SDS011;10332;50.208;18.988;2023-12-20T09:18:16;22.95;;;15.45;;
20348;SDS011;10332;50.208;18.988;2023-12-20T09:20:43;23.85;;;15.02;;
20348;SDS011;10332;50.208;18.988;2023-12-20T09:23:14;23.17;;;15.73;;
20348;SDS011;10332;50.208;18.988;2023-12-20T09:25:42;24.13;;;15.35;;
20348;SDS011;10332;50.208;18.988;2023-12-20T09:28:09;22.40;;;14.68;;
20348;SDS011;10332;50.208;18.988;2023-12-20T09:30:37;29.52;;;18.25;;
20348;SDS011;10332;50.208;18.988;2023-12-20T09:33:07;27.23;;;17.65;;
20348;SDS011;10332;50.208;18.988;2023-12-20T09:35:35;30.95;;;17.50;;
20348;SDS011;10332;50.208;18.988;2023-12-20T09:38:03;26.75;;;16.65;;
20348;SDS011;10332;50.208;18.988;2023-12-20T09:40:30;29.58;;;18.77;;
20348;SDS011;10332;50.208;18.988;2023-12-20T09:43:04;32.58;;;18.75;;
20348;SDS011;10332;50.208;18.988;2023-12-20T09:45:35;33.00;;;19.55;;
20348;SDS011;10332;50.208;18.988;2023-12-20T09:48:03;32.53;;;19.30;;
20348;SDS011;10332;50.208;18.988;2023-12-20T09:50:31;31.05;;;18.38;;
20348;SDS011;10332;50.208;18.988;2023-12-20T09:53:00;31.20;;;19.30;;
20348;SDS011;10332;50.208;18.988;2023-12-20T09:55:28;31.95;;;20.42;;
20348;SDS011;10332;50.208;18.988;2023-12-20T09:57:59;29.77;;;19.10;;
20348;SDS011;10332;50.208;18.988;2023-12-20T10:00:27;31.17;;;20.75;;
20348;SDS011;10332;50.208;18.988;2023-12-20T10:02:58;33.58;;;20.45;;
20348;SDS011;10332;50.208;18.988;2023-12-20T10:05:31;33.60;;;21.25;;
20348;SDS011;10332;50.208;18.988;2023-12-20T10:08:00;33.05;;;20.58;;
20348;SDS011;10332;50.208;18.988;2023-12-20T10:10:28;29.85;;;19.00;;
20348;SDS011;10332;50.208;18.988;2023-12-20T10:13:11;29.35;;;19.63;;
20348;SDS011;10332;50.208;18.988;2023-12-20T10:15:40;28.48;;;18.35;;
20348;SDS011;10332;50.208;18.988;2023-12-20T10:18:09;27.45;;;17.88;;
20348;SDS011;10332;50.208;18.988;2023-12-20T10:20:37;29.65;;;17.95;;
20348;SDS011;10332;50.208;18.988;2023-12-20T10:23:09;31.92;;;19.70;;
20348;SDS011;10332;50.208;18.988;2023-12-20T10:25:36;31.45;;;19.95;;
20348;SDS011;10332;50.208;18.988;2023-12-20T10:28:13;32.28;;;20.40;;
20348;SDS011;10332;50.208;18.988;2023-12-20T10:30:45;29.25;;;18.70;;
20348;SDS011;10332;50.208;18.988;2023-12-20T10:33:13;30.55;;;17.17;;
20348;SDS011;10332;50.208;18.988;2023-12-20T10:35:49;27.42;;;18.58;;
20348;SDS011;10332;50.208;18.988;2023-12-20T10:38:17;29.00;;;17.92;;
20348;SDS011;10332;50.208;18.988;2023-12-20T10:40:45;29.52;;;19.17;;
20348;SDS011;10332;50.208;18.988;2023-12-20T10:43:13;28.02;;;17.83;;
20348;SDS011;10332;50.208;18.988;2023-12-20T10:45:42;29.90;;;19.30;;
20348;SDS011;10332;50.208;18.988;2023-12-20T10:48:12;27.88;;;17.75;;
20348;SDS011;10332;50.208;18.988;2023-12-20T10:50:39;26.98;;;17.38;;
20348;SDS011;10332;50.208;18.988;2023-12-20T10:53:08;30.05;;;18.45;;
20348;SDS011;10332;50.208;18.988;2023-12-20T10:55:35;26.35;;;16.60;;
20348;SDS011;10332;50.208;18.988;2023-12-20T10:58:09;27.42;;;17.52;;
20348;SDS011;10332;50.208;18.988;2023-12-20T11:00:39;29.45;;;18.88;;
20348;SDS011;10332;50.208;18.988;2023-12-20T11:03:11;25.30;;;16.40;;
20348;SDS011;10332;50.208;18.988;2023-12-20T11:05:58;26.98;;;17.52;;
20348;SDS011;10332;50.208;18.988;2023-12-20T11:08:42;24.08;;;15.77;;
20348;SDS011;10332;50.208;18.988;2023-12-20T11:14:14;24.25;;;16.35;;
20348;SDS011;10332;50.208;18.988;2023-12-20T11:16:49;23.70;;;15.77;;
20348;SDS011;10332;50.208;18.988;2023-12-20T11:19:21;25.20;;;15.57;;
20348;SDS011;10332;50.208;18.988;2023-12-20T11:21:48;25.38;;;16.35;;
20348;SDS011;10332;50.208;18.988;2023-12-20T11:24:21;24.80;;;15.98;;
20348;SDS011;10332;50.208;18.988;2023-12-20T11:26:49;22.27;;;15.35;;
20348;SDS011;10332;50.208;18.988;2023-12-20T11:29:30;24.63;;;15.93;;
20348;SDS011;10332;50.208;18.988;2023-12-20T11:32:02;23.63;;;14.38;;
20348;SDS011;10332;50.208;18.988;2023-12-20T11:35:00;24.65;;;15.10;;
20348;SDS011;10332;50.208;18.988;2023-12-20T11:37:32;25.40;;;16.65;;
20348;SDS011;10332;50.208;18.988;2023-12-20T11:40:05;29.95;;;17.23;;
20348;SDS011;10332;50.208;18.988;2023-12-20T11:42:40;27.85;;;17.52;;
20348;SDS011;10332;50.208;18.988;2023-12-20T11:45:13;30.45;;;18.10;;
20348;SDS011;10332;50.208;18.988;2023-12-20T11:47:49;29.65;;;17.50;;
20348;SDS011;10332;50.208;18.988;2023-12-20T11:50:18;28.90;;;18.25;;
20348;SDS011;10332;50.208;18.988;2023-12-20T11:52:46;29.67;;;18.33;;
20348;SDS011;10332;50.208;18.988;2023-12-20T11:55:14;28.85;;;17.83;;
20348;SDS011;10332;50.208;18.988;2023-12-20T11:57:42;29.30;;;17.98;;
20348;SDS011;10332;50.208;18.988;2023-12-20T12:00:11;29.85;;;18.63;;
20348;SDS011;10332;50.208;18.988;2023-12-20T12:02:39;27.60;;;16.92;;
20348;SDS011;10332;50.208;18.988;2023-12-20T12:05:07;26.10;;;16.65;;
20348;SDS011;10332;50.208;18.988;2023-12-20T12:07:35;27.42;;;17.13;;
20348;SDS011;10332;50.208;18.988;2023-12-20T12:10:03;24.25;;;14.88;;
20348;SDS011;10332;50.208;18.988;2023-12-20T12:12:30;26.98;;;15.60;;
20348;SDS011;10332;50.208;18.988;2023-12-20T12:14:59;22.63;;;14.80;;
20348;SDS011;10332;50.208;18.988;2023-12-20T12:17:26;19.83;;;13.55;;
20348;SDS011;10332;50.208;18.988;2023-12-20T12:20:01;23.27;;;14.02;;
20348;SDS011;10332;50.208;18.988;2023-12-20T12:22:31;21.33;;;12.68;;
20348;SDS011;10332;50.208;18.988;2023-12-20T12:25:09;18.90;;;12.43;;
20348;SDS011;10332;50.208;18.988;2023-12-20T12:27:41;18.92;;;12.45;;
20348;SDS011;10332;50.208;18.988;2023-12-20T12:30:09;22.52;;;12.93;;
20348;SDS011;10332;50.208;18.988;2023-12-20T12:32:38;22.15;;;13.30;;
20348;SDS011;10332;50.208;18.988;2023-12-20T12:35:06;20.52;;;12.50;;
20348;SDS011;10332;50.208;18.988;2023-12-20T12:37:35;22.38;;;12.35;;
20348;SDS011;10332;50.208;18.988;2023-12-20T12:40:07;21.70;;;13.00;;
20348;SDS011;10332;50.208;18.988;2023-12-20T12:42:40;20.35;;;12.35;;
20348;SDS011;10332;50.208;18.988;2023-12-20T12:45:10;22.10;;;12.98;;
20348;SDS011;10332;50.208;18.988;2023-12-20T12:47:38;23.15;;;14.10;;
20348;SDS011;10332;50.208;18.988;2023-12-20T12:50:06;26.30;;;16.05;;
20348;SDS011;10332;50.208;18.988;2023-12-20T12:52:34;25.50;;;16.73;;
20348;SDS011;10332;50.208;18.988;2023-12-20T12:55:02;39.20;;;20.30;;
20348;SDS011;10332;50.208;18.988;2023-12-20T12:57:32;35.17;;;20.23;;
20348;SDS011;10332;50.208;18.988;2023-12-20T13:00:00;31.90;;;18.98;;
20348;SDS011;10332;50.208;18.988;2023-12-20T13:02:29;35.58;;;19.25;;
20348;SDS011;10332;50.208;18.988;2023-12-20T13:04:57;30.08;;;18.33;;
20348;SDS011;10332;50.208;18.988;2023-12-20T13:07:26;28.70;;;18.13;;
20348;SDS011;10332;50.208;18.988;2023-12-20T13:09:53;31.15;;;19.45;;
20348;SDS011;10332;50.208;18.988;2023-12-20T13:12:20;34.10;;;20.58;;
20348;SDS011;10332;50.208;18.988;2023-12-20T13:14:48;32.08;;;19.65;;
20348;SDS011;10332;50.208;18.988;2023-12-20T13:17:15;33.60;;;20.40;;
20348;SDS011;10332;50.208;18.988;2023-12-20T13:19:43;33.00;;;20.42;;
20348;SDS011;10332;50.208;18.988;2023-12-20T13:22:10;35.10;;;20.25;;
20348;SDS011;10332;50.208;18.988;2023-12-20T13:24:38;32.28;;;19.90;;
20348;SDS011;10332;50.208;18.988;2023-12-20T13:27:05;32.67;;;20.10;;
20348;SDS011;10332;50.208;18.988;2023-12-20T13:29:33;35.17;;;20.25;;
20348;SDS011;10332;50.208;18.988;2023-12-20T13:32:04;38.08;;;22.45;;
20348;SDS011;10332;50.208;18.988;2023-12-20T13:34:32;39.53;;;23.45;;
20348;SDS011;10332;50.208;18.988;2023-12-20T13:36:59;32.38;;;21.00;;
20348;SDS011;10332;50.208;18.988;2023-12-20T13:39:27;38.67;;;21.63;;
20348;SDS011;10332;50.208;18.988;2023-12-20T13:41:54;34.50;;;21.27;;
20348;SDS011;10332;50.208;18.988;2023-12-20T13:44:25;32.20;;;20.65;;
20348;SDS011;10332;50.208;18.988;2023-12-20T13:46:52;29.83;;;19.50;;
20348;SDS011;10332;50.208;18.988;2023-12-20T13:49:19;30.15;;;18.80;;
20348;SDS011;10332;50.208;18.988;2023-12-20T13:51:48;29.67;;;18.25;;
20348;SDS011;10332;50.208;18.988;2023-12-20T13:54:15;29.23;;;18.27;;
20348;SDS011;10332;50.208;18.988;2023-12-20T13:56:46;27.40;;;18.05;;
20348;SDS011;10332;50.208;18.988;2023-12-20T13:59:32;26.58;;;17.65;;
20348;SDS011;10332;50.208;18.988;2023-12-20T14:01:59;29.50;;;18.63;;
20348;SDS011;10332;50.208;18.988;2023-12-20T14:04:28;28.83;;;18.25;;
20348;SDS011;10332;50.208;18.988;2023-12-20T14:07:09;29.17;;;17.90;;
20348;SDS011;10332;50.208;18.988;2023-12-20T14:09:39;30.40;;;18.38;;
20348;SDS011;10332;50.208;18.988;2023-12-20T14:12:13;29.75;;;19.02;;
20348;SDS011;10332;50.208;18.988;2023-12-20T14:14:41;27.88;;;18.40;;
20348;SDS011;10332;50.208;18.988;2023-12-20T14:17:08;27.70;;;17.77;;
20348;SDS011;10332;50.208;18.988;2023-12-20T14:19:36;26.40;;;16.80;;
20348;SDS011;10332;50.208;18.988;2023-12-20T14:22:03;26.42;;;16.75;;
20348;SDS011;10332;50.208;18.988;2023-12-20T14:24:31;25.30;;;15.10;;
20348;SDS011;10332;50.208;18.988;2023-12-20T14:26:59;24.65;;;15.68;;